Richfield, Utah
Current Conditions -  °F | °C
As of 3:15 PM on Wednesday 28 Jan 2015 (Local Time) from KDTA Reporting Station
Scattered Clouds Scattered Clouds  
Wind Chill: 53°   Ceiling: Unl
Heat Index: 53°   Visibility: 10mi
Dew Point: 33°   Wind: 0mph
Humidity: 47%   Direction: NA
Pressure: 30.27"   Gusts: NA
Location:  38.77°N, 112.08°W
Report Text: KDTA 282215Z AUTO 00000KT 10SM SCT049 SCT070 12/00 A3027 RMK AO1 T01150004
Loading
Personal Weather Stations






























Interactive Weather Map New forecast layout! Learn more

10-Day Weather Forecast

Advertisements
Track Severe Weather on mobile